sensor_id;sensor_type;location;lat;lon;timestamp;temperature;humidity
52034;DHT22;38045;52.988;6.536;2023-02-15T00:00:14;2.10;99.90
52034;DHT22;38045;52.988;6.536;2023-02-15T00:02:40;2.10;99.90
52034;DHT22;38045;52.988;6.536;2023-02-15T00:05:06;2.10;99.90
52034;DHT22;38045;52.988;6.536;2023-02-15T00:07:32;2.10;99.90
52034;DHT22;38045;52.988;6.536;2023-02-15T00:09:58;2.10;99.90
52034;DHT22;38045;52.988;6.536;2023-02-15T00:12:23;2.10;99.90
52034;DHT22;38045;52.988;6.536;2023-02-15T00:14:49;2.00;99.90
52034;DHT22;38045;52.988;6.536;2023-02-15T00:17:15;2.00;99.90
52034;DHT22;38045;52.988;6.536;2023-02-15T00:19:40;2.00;99.90
52034;DHT22;38045;52.988;6.536;2023-02-15T00:22:06;2.00;99.90
52034;DHT22;38045;52.988;6.536;2023-02-15T00:24:32;1.90;99.90
52034;DHT22;38045;52.988;6.536;2023-02-15T00:26:58;1.90;99.90
52034;DHT22;38045;52.988;6.536;2023-02-15T00:29:24;1.90;99.90
52034;DHT22;38045;52.988;6.536;2023-02-15T00:31:49;1.80;99.90
52034;DHT22;38045;52.988;6.536;2023-02-15T00:34:21;1.80;99.90
52034;DHT22;38045;52.988;6.536;2023-02-15T00:36:47;1.70;99.90
52034;DHT22;38045;52.988;6.536;2023-02-15T00:39:14;1.70;99.90
52034;DHT22;38045;52.988;6.536;2023-02-15T00:41:40;1.70;99.90
52034;DHT22;38045;52.988;6.536;2023-02-15T00:44:07;1.80;99.90
52034;DHT22;38045;52.988;6.536;2023-02-15T00:46:33;1.70;99.90
52034;DHT22;38045;52.988;6.536;2023-02-15T00:48:59;1.70;99.90
52034;DHT22;38045;52.988;6.536;2023-02-15T00:51:25;1.70;99.90
52034;DHT22;38045;52.988;6.536;2023-02-15T00:53:50;1.60;99.90
52034;DHT22;38045;52.988;6.536;2023-02-15T00:56:16;1.50;99.90
52034;DHT22;38045;52.988;6.536;2023-02-15T00:58:42;1.40;99.90
52034;DHT22;38045;52.988;6.536;2023-02-15T01:01:13;1.30;99.90
52034;DHT22;38045;52.988;6.536;2023-02-15T01:03:39;1.30;99.90
52034;DHT22;38045;52.988;6.536;2023-02-15T01:06:07;1.30;99.90
52034;DHT22;38045;52.988;6.536;2023-02-15T01:08:33;1.40;99.90
52034;DHT22;38045;52.988;6.536;2023-02-15T01:11:08;1.40;99.90
52034;DHT22;38045;52.988;6.536;2023-02-15T01:13:35;1.40;99.90
52034;DHT22;38045;52.988;6.536;2023-02-15T01:16:01;1.30;99.90
52034;DHT22;38045;52.988;6.536;2023-02-15T01:18:27;1.20;99.90
52034;DHT22;38045;52.988;6.536;2023-02-15T01:20:53;1.20;99.90
52034;DHT22;38045;52.988;6.536;2023-02-15T01:23:18;1.20;99.90
52034;DHT22;38045;52.988;6.536;2023-02-15T01:25:44;1.10;99.90
52034;DHT22;38045;52.988;6.536;2023-02-15T01:28:10;1.10;99.90
52034;DHT22;38045;52.988;6.536;2023-02-15T01:30:35;1.00;99.90
52034;DHT22;38045;52.988;6.536;2023-02-15T01:33:01;1.00;99.90
52034;DHT22;38045;52.988;6.536;2023-02-15T01:35:27;1.00;99.90
52034;DHT22;38045;52.988;6.536;2023-02-15T01:37:54;1.10;99.90
52034;DHT22;38045;52.988;6.536;2023-02-15T01:40:20;1.10;99.90
52034;DHT22;38045;52.988;6.536;2023-02-15T01:42:50;1.10;99.90
52034;DHT22;38045;52.988;6.536;2023-02-15T01:45:31;1.10;99.90
52034;DHT22;38045;52.988;6.536;2023-02-15T01:48:20;1.10;99.90
52034;DHT22;38045;52.988;6.536;2023-02-15T01:50:59;1.10;99.90
52034;DHT22;38045;52.988;6.536;2023-02-15T01:53:40;1.00;99.90
52034;DHT22;38045;52.988;6.536;2023-02-15T01:56:17;1.10;99.90
52034;DHT22;38045;52.988;6.536;2023-02-15T01:58:45;1.10;99.90
52034;DHT22;38045;52.988;6.536;2023-02-15T02:01:12;1.10;99.90
52034;DHT22;38045;52.988;6.536;2023-02-15T02:04:09;1.00;99.90
52034;DHT22;38045;52.988;6.536;2023-02-15T02:06:36;1.00;99.90
52034;DHT22;38045;52.988;6.536;2023-02-15T02:09:03;1.10;99.90
52034;DHT22;38045;52.988;6.536;2023-02-15T02:11:29;1.10;99.90
52034;DHT22;38045;52.988;6.536;2023-02-15T02:13:55;1.10;99.90
52034;DHT22;38045;52.988;6.536;2023-02-15T02:27:46;0.90;99.90
52034;DHT22;38045;52.988;6.536;2023-02-15T02:41:18;1.00;99.90
52034;DHT22;38045;52.988;6.536;2023-02-15T02:46:32;1.00;99.90
52034;DHT22;38045;52.988;6.536;2023-02-15T02:49:01;1.00;99.90
52034;DHT22;38045;52.988;6.536;2023-02-15T02:51:26;0.90;99.90
52034;DHT22;38045;52.988;6.536;2023-02-15T02:53:54;0.90;99.90
52034;DHT22;38045;52.988;6.536;2023-02-15T02:56:43;0.90;99.90
52034;DHT22;38045;52.988;6.536;2023-02-15T02:59:22;0.90;99.90
52034;DHT22;38045;52.988;6.536;2023-02-15T03:02:13;0.90;99.90
52034;DHT22;38045;52.988;6.536;2023-02-15T03:04:46;0.90;99.90
52034;DHT22;38045;52.988;6.536;2023-02-15T03:07:17;0.80;99.90
52034;DHT22;38045;52.988;6.536;2023-02-15T03:09:51;0.80;99.90
52034;DHT22;38045;52.988;6.536;2023-02-15T03:12:28;0.80;99.90
52034;DHT22;38045;52.988;6.536;2023-02-15T03:17:29;0.80;99.90
52034;DHT22;38045;52.988;6.536;2023-02-15T03:19:58;0.80;99.90
52034;DHT22;38045;52.988;6.536;2023-02-15T03:22:37;0.70;99.90
52034;DHT22;38045;52.988;6.536;2023-02-15T03:25:19;0.70;99.90
52034;DHT22;38045;52.988;6.536;2023-02-15T03:27:49;0.70;99.90
52034;DHT22;38045;52.988;6.536;2023-02-15T03:30:19;0.70;99.90
52034;DHT22;38045;52.988;6.536;2023-02-15T03:32:47;0.70;99.90
52034;DHT22;38045;52.988;6.536;2023-02-15T03:35:14;0.70;99.90
52034;DHT22;38045;52.988;6.536;2023-02-15T03:37:59;0.60;99.90
52034;DHT22;38045;52.988;6.536;2023-02-15T03:40:29;0.60;99.90
52034;DHT22;38045;52.988;6.536;2023-02-15T03:45:52;0.60;99.90
52034;DHT22;38045;52.988;6.536;2023-02-15T03:48:27;0.60;99.90
52034;DHT22;38045;52.988;6.536;2023-02-15T03:50:57;0.60;99.90
52034;DHT22;38045;52.988;6.536;2023-02-15T03:53:43;0.60;99.90
52034;DHT22;38045;52.988;6.536;2023-02-15T03:56:10;0.50;99.90
52034;DHT22;38045;52.988;6.536;2023-02-15T03:58:35;0.50;99.90
52034;DHT22;38045;52.988;6.536;2023-02-15T04:01:27;0.40;99.90
52034;DHT22;38045;52.988;6.536;2023-02-15T04:04:20;0.40;99.90
52034;DHT22;38045;52.988;6.536;2023-02-15T04:06:46;0.40;99.90
52034;DHT22;38045;52.988;6.536;2023-02-15T04:09:13;0.40;99.90
52034;DHT22;38045;52.988;6.536;2023-02-15T04:11:57;0.40;99.90
52034;DHT22;38045;52.988;6.536;2023-02-15T04:14:23;0.40;99.90
52034;DHT22;38045;52.988;6.536;2023-02-15T04:17:07;0.40;99.90
52034;DHT22;38045;52.988;6.536;2023-02-15T04:19:33;0.40;99.90
52034;DHT22;38045;52.988;6.536;2023-02-15T04:22:17;0.40;99.90
52034;DHT22;38045;52.988;6.536;2023-02-15T04:25:02;0.40;99.90
52034;DHT22;38045;52.988;6.536;2023-02-15T04:27:38;0.40;99.90
52034;DHT22;38045;52.988;6.536;2023-02-15T04:30:05;0.50;99.90
52034;DHT22;38045;52.988;6.536;2023-02-15T04:32:31;0.60;99.90
52034;DHT22;38045;52.988;6.536;2023-02-15T04:34:57;0.50;99.90
52034;DHT22;38045;52.988;6.536;2023-02-15T04:37:22;0.60;99.90
52034;DHT22;38045;52.988;6.536;2023-02-15T04:39:48;0.60;99.90
52034;DHT22;38045;52.988;6.536;2023-02-15T04:42:15;0.50;99.90
52034;DHT22;38045;52.988;6.536;2023-02-15T04:44:41;0.50;99.90
52034;DHT22;38045;52.988;6.536;2023-02-15T04:47:06;0.40;99.90
52034;DHT22;38045;52.988;6.536;2023-02-15T04:49:32;0.40;99.90
52034;DHT22;38045;52.988;6.536;2023-02-15T04:51:57;0.50;99.90
52034;DHT22;38045;52.988;6.536;2023-02-15T04:54:23;0.50;99.90
52034;DHT22;38045;52.988;6.536;2023-02-15T04:56:49;0.50;99.90
52034;DHT22;38045;52.988;6.536;2023-02-15T04:59:14;0.50;99.90
52034;DHT22;38045;52.988;6.536;2023-02-15T05:01:40;0.50;99.90
52034;DHT22;38045;52.988;6.536;2023-02-15T05:04:06;0.50;99.90
52034;DHT22;38045;52.988;6.536;2023-02-15T05:06:31;0.50;99.90
52034;DHT22;38045;52.988;6.536;2023-02-15T05:08:57;0.50;99.90
52034;DHT22;38045;52.988;6.536;2023-02-15T05:11:25;0.40;99.90
52034;DHT22;38045;52.988;6.536;2023-02-15T05:13:50;0.40;99.90
52034;DHT22;38045;52.988;6.536;2023-02-15T05:16:16;0.40;99.90
52034;DHT22;38045;52.988;6.536;2023-02-15T05:18:42;0.40;99.90
52034;DHT22;38045;52.988;6.536;2023-02-15T05:21:08;0.50;99.90
52034;DHT22;38045;52.988;6.536;2023-02-15T05:23:34;0.50;99.90
52034;DHT22;38045;52.988;6.536;2023-02-15T05:25:59;0.50;99.90
52034;DHT22;38045;52.988;6.536;2023-02-15T05:28:43;0.50;99.90
52034;DHT22;38045;52.988;6.536;2023-02-15T05:31:11;0.50;99.90
52034;DHT22;38045;52.988;6.536;2023-02-15T05:33:38;0.60;99.90
52034;DHT22;38045;52.988;6.536;2023-02-15T05:36:04;0.60;99.90
52034;DHT22;38045;52.988;6.536;2023-02-15T05:38:30;0.70;99.90
52034;DHT22;38045;52.988;6.536;2023-02-15T05:40:56;0.60;99.90
52034;DHT22;38045;52.988;6.536;2023-02-15T05:43:22;0.60;99.90
52034;DHT22;38045;52.988;6.536;2023-02-15T05:45:50;0.50;99.90
52034;DHT22;38045;52.988;6.536;2023-02-15T05:48:17;0.50;99.90
52034;DHT22;38045;52.988;6.536;2023-02-15T05:50:43;0.50;99.90
52034;DHT22;38045;52.988;6.536;2023-02-15T05:53:09;0.40;99.90
52034;DHT22;38045;52.988;6.536;2023-02-15T05:55:40;0.40;99.90
52034;DHT22;38045;52.988;6.536;2023-02-15T05:58:06;0.30;99.90
52034;DHT22;38045;52.988;6.536;2023-02-15T06:00:33;0.20;99.90
52034;DHT22;38045;52.988;6.536;2023-02-15T06:02:59;0.20;99.90
52034;DHT22;38045;52.988;6.536;2023-02-15T06:05:24;0.10;99.90
52034;DHT22;38045;52.988;6.536;2023-02-15T06:07:50;0.10;99.90
52034;DHT22;38045;52.988;6.536;2023-02-15T06:10:16;0.10;99.90
52034;DHT22;38045;52.988;6.536;2023-02-15T06:12:41;0.10;99.90
52034;DHT22;38045;52.988;6.536;2023-02-15T06:15:07;0.10;99.90
52034;DHT22;38045;52.988;6.536;2023-02-15T06:17:33;0.20;99.90
52034;DHT22;38045;52.988;6.536;2023-02-15T06:19:58;0.20;99.90
52034;DHT22;38045;52.988;6.536;2023-02-15T06:22:24;0.30;99.90
52034;DHT22;38045;52.988;6.536;2023-02-15T06:24:50;0.40;99.90
52034;DHT22;38045;52.988;6.536;2023-02-15T06:27:15;0.40;99.90
52034;DHT22;38045;52.988;6.536;2023-02-15T06:29:41;0.50;99.90
52034;DHT22;38045;52.988;6.536;2023-02-15T06:32:06;0.50;99.90
52034;DHT22;38045;52.988;6.536;2023-02-15T06:34:32;0.50;99.90
52034;DHT22;38045;52.988;6.536;2023-02-15T06:36:58;0.50;99.90
52034;DHT22;38045;52.988;6.536;2023-02-15T06:39:24;0.50;99.90
52034;DHT22;38045;52.988;6.536;2023-02-15T06:41:49;0.50;99.90
52034;DHT22;38045;52.988;6.536;2023-02-15T06:44:15;0.50;99.90
52034;DHT22;38045;52.988;6.536;2023-02-15T06:46:40;0.50;99.90
52034;DHT22;38045;52.988;6.536;2023-02-15T06:49:06;0.50;99.90
52034;DHT22;38045;52.988;6.536;2023-02-15T06:51:32;0.50;99.90
52034;DHT22;38045;52.988;6.536;2023-02-15T06:53:59;0.50;99.90
52034;DHT22;38045;52.988;6.536;2023-02-15T06:56:25;0.50;99.90
52034;DHT22;38045;52.988;6.536;2023-02-15T06:58:50;0.50;99.90
52034;DHT22;38045;52.988;6.536;2023-02-15T07:01:17;0.50;99.90
52034;DHT22;38045;52.988;6.536;2023-02-15T07:03:43;0.50;99.90
52034;DHT22;38045;52.988;6.536;2023-02-15T07:06:09;0.60;99.90
52034;DHT22;38045;52.988;6.536;2023-02-15T07:08:37;0.60;99.90
52034;DHT22;38045;52.988;6.536;2023-02-15T07:11:04;0.60;99.90
52034;DHT22;38045;52.988;6.536;2023-02-15T07:13:48;0.60;99.90
52034;DHT22;38045;52.988;6.536;2023-02-15T07:16:14;0.60;99.90
52034;DHT22;38045;52.988;6.536;2023-02-15T07:18:40;0.60;99.90
52034;DHT22;38045;52.988;6.536;2023-02-15T07:21:06;0.60;99.90
52034;DHT22;38045;52.988;6.536;2023-02-15T07:23:36;0.70;99.90
52034;DHT22;38045;52.988;6.536;2023-02-15T07:26:01;0.70;99.90
52034;DHT22;38045;52.988;6.536;2023-02-15T07:28:28;0.80;99.90
52034;DHT22;38045;52.988;6.536;2023-02-15T07:30:54;0.80;99.90
52034;DHT22;38045;52.988;6.536;2023-02-15T07:33:19;0.90;99.90
52034;DHT22;38045;52.988;6.536;2023-02-15T07:35:56;0.90;99.90
52034;DHT22;38045;52.988;6.536;2023-02-15T07:38:24;0.90;99.90
52034;DHT22;38045;52.988;6.536;2023-02-15T07:40:50;1.00;99.90
52034;DHT22;38045;52.988;6.536;2023-02-15T07:43:16;1.10;99.90
52034;DHT22;38045;52.988;6.536;2023-02-15T07:45:41;1.10;99.90
52034;DHT22;38045;52.988;6.536;2023-02-15T07:48:07;1.10;99.90
52034;DHT22;38045;52.988;6.536;2023-02-15T07:50:34;1.20;99.90
52034;DHT22;38045;52.988;6.536;2023-02-15T07:53:02;1.30;99.90
52034;DHT22;38045;52.988;6.536;2023-02-15T07:55:28;1.30;99.90
52034;DHT22;38045;52.988;6.536;2023-02-15T07:57:53;1.30;99.90
52034;DHT22;38045;52.988;6.536;2023-02-15T08:00:20;1.40;99.90
52034;DHT22;38045;52.988;6.536;2023-02-15T08:02:54;1.50;99.90
52034;DHT22;38045;52.988;6.536;2023-02-15T08:05:43;1.50;99.90
52034;DHT22;38045;52.988;6.536;2023-02-15T08:08:11;1.60;99.90
52034;DHT22;38045;52.988;6.536;2023-02-15T08:10:58;1.70;99.90
52034;DHT22;38045;52.988;6.536;2023-02-15T08:13:47;1.70;99.90
52034;DHT22;38045;52.988;6.536;2023-02-15T08:19:04;1.80;99.90
52034;DHT22;38045;52.988;6.536;2023-02-15T08:21:31;1.90;99.90
52034;DHT22;38045;52.988;6.536;2023-02-15T08:23:57;1.90;99.90
52034;DHT22;38045;52.988;6.536;2023-02-15T08:26:24;2.00;99.90
52034;DHT22;38045;52.988;6.536;2023-02-15T08:28:50;2.10;99.90
52034;DHT22;38045;52.988;6.536;2023-02-15T08:31:16;2.20;99.90
52034;DHT22;38045;52.988;6.536;2023-02-15T08:33:44;2.20;99.90
52034;DHT22;38045;52.988;6.536;2023-02-15T08:36:12;2.30;99.90
52034;DHT22;38045;52.988;6.536;2023-02-15T08:38:39;2.40;99.90
52034;DHT22;38045;52.988;6.536;2023-02-15T08:43:34;2.50;99.90
52034;DHT22;38045;52.988;6.536;2023-02-15T08:46:00;2.60;99.90
52034;DHT22;38045;52.988;6.536;2023-02-15T08:48:25;2.70;99.90
52034;DHT22;38045;52.988;6.536;2023-02-15T08:50:51;2.70;99.90
52034;DHT22;38045;52.988;6.536;2023-02-15T08:53:17;2.70;99.90
52034;DHT22;38045;52.988;6.536;2023-02-15T08:55:56;2.80;99.90
52034;DHT22;38045;52.988;6.536;2023-02-15T08:58:22;2.90;99.90
52034;DHT22;38045;52.988;6.536;2023-02-15T09:00:48;3.00;99.90
52034;DHT22;38045;52.988;6.536;2023-02-15T09:03:13;3.20;99.90
52034;DHT22;38045;52.988;6.536;2023-02-15T09:05:39;3.30;99.90
52034;DHT22;38045;52.988;6.536;2023-02-15T09:08:05;3.40;99.90
52034;DHT22;38045;52.988;6.536;2023-02-15T09:10:30;3.40;99.90
52034;DHT22;38045;52.988;6.536;2023-02-15T09:12:56;3.50;99.90
52034;DHT22;38045;52.988;6.536;2023-02-15T09:15:21;3.50;99.90
52034;DHT22;38045;52.988;6.536;2023-02-15T09:17:47;3.60;99.90
52034;DHT22;38045;52.988;6.536;2023-02-15T09:20:13;3.70;99.90
52034;DHT22;38045;52.988;6.536;2023-02-15T09:22:38;3.70;99.90
52034;DHT22;38045;52.988;6.536;2023-02-15T09:25:04;3.80;99.90
52034;DHT22;38045;52.988;6.536;2023-02-15T09:27:30;3.90;99.90
52034;DHT22;38045;52.988;6.536;2023-02-15T09:29:55;4.00;99.90
52034;DHT22;38045;52.988;6.536;2023-02-15T09:32:21;4.00;99.90
52034;DHT22;38045;52.988;6.536;2023-02-15T09:34:47;4.10;99.90
52034;DHT22;38045;52.988;6.536;2023-02-15T09:37:13;4.20;99.90
52034;DHT22;38045;52.988;6.536;2023-02-15T09:39:41;4.40;99.90
52034;DHT22;38045;52.988;6.536;2023-02-15T09:42:24;4.50;99.90
52034;DHT22;38045;52.988;6.536;2023-02-15T10:00:59;5.30;99.90
52034;DHT22;38045;52.988;6.536;2023-02-15T10:20:08;6.30;99.90
52034;DHT22;38045;52.988;6.536;2023-02-15T10:28:09;6.80;99.90
52034;DHT22;38045;52.988;6.536;2023-02-15T10:30:49;6.80;99.90
52034;DHT22;38045;52.988;6.536;2023-02-15T10:39:02;7.20;99.90
52034;DHT22;38045;52.988;6.536;2023-02-15T10:41:33;7.30;99.90
52034;DHT22;38045;52.988;6.536;2023-02-15T10:47:15;7.50;99.90
52034;DHT22;38045;52.988;6.536;2023-02-15T10:50:02;7.60;99.90
52034;DHT22;38045;52.988;6.536;2023-02-15T10:58:35;7.90;99.90
52034;DHT22;38045;52.988;6.536;2023-02-15T11:01:18;8.00;99.90
52034;DHT22;38045;52.988;6.536;2023-02-15T11:06:26;8.20;99.90
52034;DHT22;38045;52.988;6.536;2023-02-15T11:08:59;8.30;99.90
52034;DHT22;38045;52.988;6.536;2023-02-15T11:11:30;8.40;99.90
52034;DHT22;38045;52.988;6.536;2023-02-15T11:14:01;8.50;99.90
52034;DHT22;38045;52.988;6.536;2023-02-15T11:16:32;8.70;99.90
52034;DHT22;38045;52.988;6.536;2023-02-15T11:19:26;8.80;99.90
52034;DHT22;38045;52.988;6.536;2023-02-15T11:21:57;8.90;99.90
52034;DHT22;38045;52.988;6.536;2023-02-15T11:24:26;8.90;99.90
52034;DHT22;38045;52.988;6.536;2023-02-15T11:27:03;9.10;99.90
52034;DHT22;38045;52.988;6.536;2023-02-15T11:29:37;9.30;99.90
52034;DHT22;38045;52.988;6.536;2023-02-15T11:32:22;9.50;99.90
52034;DHT22;38045;52.988;6.536;2023-02-15T11:35:02;9.60;99.90
52034;DHT22;38045;52.988;6.536;2023-02-15T11:37:46;9.80;99.90
52034;DHT22;38045;52.988;6.536;2023-02-15T11:40:25;9.90;99.90
52034;DHT22;38045;52.988;6.536;2023-02-15T11:42:55;10.00;99.90
52034;DHT22;38045;52.988;6.536;2023-02-15T11:45:29;10.10;99.90
52034;DHT22;38045;52.988;6.536;2023-02-15T11:47:59;10.20;99.90
52034;DHT22;38045;52.988;6.536;2023-02-15T11:50:30;10.30;99.90
52034;DHT22;38045;52.988;6.536;2023-02-15T11:53:01;10.40;99.90
52034;DHT22;38045;52.988;6.536;2023-02-15T11:55:29;10.50;99.90
52034;DHT22;38045;52.988;6.536;2023-02-15T11:58:04;10.70;99.90
52034;DHT22;38045;52.988;6.536;2023-02-15T12:00:45;10.90;99.90
52034;DHT22;38045;52.988;6.536;2023-02-15T12:03:41;11.00;99.90
52034;DHT22;38045;52.988;6.536;2023-02-15T12:06:16;11.20;99.90
52034;DHT22;38045;52.988;6.536;2023-02-15T12:08:48;11.30;99.90
52034;DHT22;38045;52.988;6.536;2023-02-15T12:11:20;11.30;99.90
52034;DHT22;38045;52.988;6.536;2023-02-15T12:16:21;11.30;99.90
52034;DHT22;38045;52.988;6.536;2023-02-15T12:18:47;11.30;99.90
52034;DHT22;38045;52.988;6.536;2023-02-15T12:21:31;11.20;99.90
52034;DHT22;38045;52.988;6.536;2023-02-15T12:26:44;11.20;99.90
52034;DHT22;38045;52.988;6.536;2023-02-15T12:29:16;11.30;99.90
52034;DHT22;38045;52.988;6.536;2023-02-15T12:31:46;11.40;99.90
52034;DHT22;38045;52.988;6.536;2023-02-15T12:36:54;11.50;99.90
52034;DHT22;38045;52.988;6.536;2023-02-15T12:39:27;11.50;99.90
52034;DHT22;38045;52.988;6.536;2023-02-15T12:44:22;11.60;99.90
52034;DHT22;38045;52.988;6.536;2023-02-15T12:47:04;11.60;99.90
52034;DHT22;38045;52.988;6.536;2023-02-15T12:49:34;11.80;99.90
52034;DHT22;38045;52.988;6.536;2023-02-15T12:52:06;12.00;99.90
52034;DHT22;38045;52.988;6.536;2023-02-15T12:54:38;12.10;99.90
52034;DHT22;38045;52.988;6.536;2023-02-15T13:00:00;12.20;99.90
52034;DHT22;38045;52.988;6.536;2023-02-15T13:02:31;12.30;99.90
52034;DHT22;38045;52.988;6.536;2023-02-15T13:07:33;12.10;99.90
52034;DHT22;38045;52.988;6.536;2023-02-15T13:09:59;12.10;99.90
52034;DHT22;38045;52.988;6.536;2023-02-15T13:12:27;12.20;99.90
52034;DHT22;38045;52.988;6.536;2023-02-15T13:14:54;12.20;99.90
52034;DHT22;38045;52.988;6.536;2023-02-15T13:17:28;12.20;99.90
52034;DHT22;38045;52.988;6.536;2023-02-15T13:19:58;12.10;99.90
52034;DHT22;38045;52.988;6.536;2023-02-15T13:22:36;12.10;99.90
52034;DHT22;38045;52.988;6.536;2023-02-15T13:25:37;12.10;99.90
52034;DHT22;38045;52.988;6.536;2023-02-15T13:28:07;12.10;99.90
52034;DHT22;38045;52.988;6.536;2023-02-15T13:30:38;12.00;99.90
52034;DHT22;38045;52.988;6.536;2023-02-15T13:33:24;12.00;99.90
52034;DHT22;38045;52.988;6.536;2023-02-15T13:36:12;12.10;99.90
52034;DHT22;38045;52.988;6.536;2023-02-15T13:38:59;12.10;99.90
52034;DHT22;38045;52.988;6.536;2023-02-15T13:41:47;12.10;99.90
52034;DHT22;38045;52.988;6.536;2023-02-15T13:52:22;12.10;99.90
52034;DHT22;38045;52.988;6.536;2023-02-15T14:01:04;12.30;99.90
52034;DHT22;38045;52.988;6.536;2023-02-15T14:03:49;12.30;99.90
52034;DHT22;38045;52.988;6.536;2023-02-15T14:17:09;11.90;99.90
52034;DHT22;38045;52.988;6.536;2023-02-15T14:19:59;11.90;99.90
52034;DHT22;38045;52.988;6.536;2023-02-15T14:22:43;11.80;99.90
52034;DHT22;38045;52.988;6.536;2023-02-15T14:27:56;11.70;99.90
52034;DHT22;38045;52.988;6.536;2023-02-15T14:30:30;11.60;99.90
52034;DHT22;38045;52.988;6.536;2023-02-15T14:35:50;11.40;99.90
52034;DHT22;38045;52.988;6.536;2023-02-15T14:41:29;11.40;99.90
52034;DHT22;38045;52.988;6.536;2023-02-15T14:46:47;11.30;99.90
52034;DHT22;38045;52.988;6.536;2023-02-15T14:49:27;11.30;99.90
52034;DHT22;38045;52.988;6.536;2023-02-15T14:52:02;11.30;99.90
52034;DHT22;38045;52.988;6.536;2023-02-15T15:05:33;11.40;99.90
52034;DHT22;38045;52.988;6.536;2023-02-15T15:08:01;11.40;99.90
52034;DHT22;38045;52.988;6.536;2023-02-15T15:10:42;11.40;99.90
52034;DHT22;38045;52.988;6.536;2023-02-15T15:15:56;11.30;99.90
52034;DHT22;38045;52.988;6.536;2023-02-15T15:18:48;11.30;99.90
52034;DHT22;38045;52.988;6.536;2023-02-15T15:41:47;10.80;99.90
52034;DHT22;38045;52.988;6.536;2023-02-15T15:49:38;10.60;99.90
52034;DHT22;38045;52.988;6.536;2023-02-15T15:52:21;10.60;99.90
52034;DHT22;38045;52.988;6.536;2023-02-15T15:54:51;10.50;99.90
52034;DHT22;38045;52.988;6.536;2023-02-15T15:59:47;10.40;99.90
52034;DHT22;38045;52.988;6.536;2023-02-15T16:02:17;10.30;99.90
52034;DHT22;38045;52.988;6.536;2023-02-15T16:04:44;10.30;99.90
52034;DHT22;38045;52.988;6.536;2023-02-15T16:07:27;10.20;99.90
52034;DHT22;38045;52.988;6.536;2023-02-15T16:09:59;10.10;99.90
52034;DHT22;38045;52.988;6.536;2023-02-15T16:12:35;10.10;99.90
52034;DHT22;38045;52.988;6.536;2023-02-15T16:15:15;10.00;99.90
52034;DHT22;38045;52.988;6.536;2023-02-15T16:17:48;9.90;99.90
52034;DHT22;38045;52.988;6.536;2023-02-15T16:20:27;9.90;99.90
52034;DHT22;38045;52.988;6.536;2023-02-15T16:28:13;9.70;99.90
52034;DHT22;38045;52.988;6.536;2023-02-15T16:30:40;9.70;99.90
52034;DHT22;38045;52.988;6.536;2023-02-15T16:33:14;9.60;99.90
52034;DHT22;38045;52.988;6.536;2023-02-15T16:35:55;9.50;99.90
52034;DHT22;38045;52.988;6.536;2023-02-15T16:43:39;9.30;99.90
52034;DHT22;38045;52.988;6.536;2023-02-15T16:46:10;9.20;99.90
52034;DHT22;38045;52.988;6.536;2023-02-15T16:48:40;9.10;99.90
52034;DHT22;38045;52.988;6.536;2023-02-15T16:51:07;9.10;99.90
52034;DHT22;38045;52.988;6.536;2023-02-15T16:53:34;9.10;99.90
52034;DHT22;38045;52.988;6.536;2023-02-15T16:56:02;9.50;99.90
52034;DHT22;38045;52.988;6.536;2023-02-15T16:58:42;9.00;99.90
52034;DHT22;38045;52.988;6.536;2023-02-15T17:01:11;9.00;99.90
52034;DHT22;38045;52.988;6.536;2023-02-15T17:03:37;9.00;99.90
52034;DHT22;38045;52.988;6.536;2023-02-15T17:06:23;9.00;99.90
52034;DHT22;38045;52.988;6.536;2023-02-15T17:08:51;9.00;99.90
52034;DHT22;38045;52.988;6.536;2023-02-15T17:11:21;9.00;99.90
52034;DHT22;38045;52.988;6.536;2023-02-15T17:14:12;9.00;99.90
52034;DHT22;38045;52.988;6.536;2023-02-15T17:16:48;8.90;99.90
52034;DHT22;38045;52.988;6.536;2023-02-15T17:19:26;8.80;99.90
52034;DHT22;38045;52.988;6.536;2023-02-15T17:21:59;8.80;99.90
52034;DHT22;38045;52.988;6.536;2023-02-15T17:26:56;8.80;99.90
52034;DHT22;38045;52.988;6.536;2023-02-15T17:29:44;8.70;99.90
52034;DHT22;38045;52.988;6.536;2023-02-15T17:32:19;8.70;99.90
52034;DHT22;38045;52.988;6.536;2023-02-15T17:35:16;8.70;99.90
52034;DHT22;38045;52.988;6.536;2023-02-15T17:37:48;8.70;99.90
52034;DHT22;38045;52.988;6.536;2023-02-15T17:40:21;8.60;99.90
52034;DHT22;38045;52.988;6.536;2023-02-15T17:42:47;8.60;99.90
52034;DHT22;38045;52.988;6.536;2023-02-15T17:45:14;8.60;99.90
52034;DHT22;38045;52.988;6.536;2023-02-15T17:47:40;8.50;99.90
52034;DHT22;38045;52.988;6.536;2023-02-15T17:50:06;8.50;99.90
52034;DHT22;38045;52.988;6.536;2023-02-15T17:52:32;8.40;99.90
52034;DHT22;38045;52.988;6.536;2023-02-15T17:55:00;8.30;99.90
52034;DHT22;38045;52.988;6.536;2023-02-15T17:57:49;8.20;99.90
52034;DHT22;38045;52.988;6.536;2023-02-15T18:00:15;8.20;99.90
52034;DHT22;38045;52.988;6.536;2023-02-15T18:02:59;8.10;99.90
52034;DHT22;38045;52.988;6.536;2023-02-15T18:05:43;8.10;99.90
52034;DHT22;38045;52.988;6.536;2023-02-15T18:08:28;8.00;99.90
52034;DHT22;38045;52.988;6.536;2023-02-15T18:11:12;7.90;99.90
52034;DHT22;38045;52.988;6.536;2023-02-15T18:13:57;7.90;99.90
52034;DHT22;38045;52.988;6.536;2023-02-15T18:16:27;7.80;99.90
52034;DHT22;38045;52.988;6.536;2023-02-15T18:18:54;7.80;99.90
52034;DHT22;38045;52.988;6.536;2023-02-15T18:21:20;7.80;99.90
52034;DHT22;38045;52.988;6.536;2023-02-15T18:23:45;7.80;99.90
52034;DHT22;38045;52.988;6.536;2023-02-15T18:26:17;7.70;99.90
52034;DHT22;38045;52.988;6.536;2023-02-15T18:28:43;7.60;99.90
52034;DHT22;38045;52.988;6.536;2023-02-15T18:31:10;7.60;99.90
52034;DHT22;38045;52.988;6.536;2023-02-15T18:34:02;7.60;99.90
52034;DHT22;38045;52.988;6.536;2023-02-15T18:36:31;7.50;99.90
52034;DHT22;38045;52.988;6.536;2023-02-15T18:39:00;7.50;99.90
52034;DHT22;38045;52.988;6.536;2023-02-15T18:41:28;7.50;99.90
52034;DHT22;38045;52.988;6.536;2023-02-15T18:43:53;7.40;99.90
52034;DHT22;38045;52.988;6.536;2023-02-15T18:46:20;7.40;99.90
52034;DHT22;38045;52.988;6.536;2023-02-15T18:48:46;7.40;99.90
52034;DHT22;38045;52.988;6.536;2023-02-15T18:51:20;7.40;99.90
52034;DHT22;38045;52.988;6.536;2023-02-15T18:53:49;7.40;99.90
52034;DHT22;38045;52.988;6.536;2023-02-15T18:56:16;7.30;99.90
52034;DHT22;38045;52.988;6.536;2023-02-15T18:58:42;7.30;99.90
52034;DHT22;38045;52.988;6.536;2023-02-15T19:01:16;7.30;99.90
52034;DHT22;38045;52.988;6.536;2023-02-15T19:03:46;7.30;99.90
52034;DHT22;38045;52.988;6.536;2023-02-15T19:06:14;7.20;99.90
52034;DHT22;38045;52.988;6.536;2023-02-15T19:08:41;7.20;99.90
52034;DHT22;38045;52.988;6.536;2023-02-15T19:11:22;7.20;99.90
52034;DHT22;38045;52.988;6.536;2023-02-15T19:13:49;7.20;99.90
52034;DHT22;38045;52.988;6.536;2023-02-15T19:16:30;7.10;99.90
52034;DHT22;38045;52.988;6.536;2023-02-15T19:18:57;7.10;99.90
52034;DHT22;38045;52.988;6.536;2023-02-15T19:21:24;7.10;99.90
52034;DHT22;38045;52.988;6.536;2023-02-15T19:23:59;7.10;99.90